sensor_id;sensor_type;location;lat;lon;timestamp;temperature;humidity
41926;DHT22;27615;51.826;5.692;2022-08-19T00:02:24;20.10;93.00
41926;DHT22;27615;51.826;5.692;2022-08-19T00:04:49;20.10;93.10
41926;DHT22;27615;51.826;5.692;2022-08-19T00:07:18;20.00;93.20
41926;DHT22;27615;51.826;5.692;2022-08-19T00:09:44;20.00;93.30
41926;DHT22;27615;51.826;5.692;2022-08-19T00:12:10;20.00;93.40
41926;DHT22;27615;51.826;5.692;2022-08-19T00:14:36;19.90;93.40
41926;DHT22;27615;51.826;5.692;2022-08-19T00:17:01;19.90;93.50
41926;DHT22;27615;51.826;5.692;2022-08-19T00:19:28;19.90;93.60
41926;DHT22;27615;51.826;5.692;2022-08-19T00:21:53;19.80;93.70
41926;DHT22;27615;51.826;5.692;2022-08-19T00:24:20;19.80;93.70
41926;DHT22;27615;51.826;5.692;2022-08-19T00:26:46;19.70;93.80
41926;DHT22;27615;51.826;5.692;2022-08-19T00:29:13;19.70;93.90
41926;DHT22;27615;51.826;5.692;2022-08-19T00:31:40;19.70;94.00
41926;DHT22;27615;51.826;5.692;2022-08-19T00:34:06;19.60;94.00
41926;DHT22;27615;51.826;5.692;2022-08-19T00:36:32;19.50;94.10
41926;DHT22;27615;51.826;5.692;2022-08-19T00:38:58;19.60;94.20
41926;DHT22;27615;51.826;5.692;2022-08-19T00:41:24;19.50;94.30
41926;DHT22;27615;51.826;5.692;2022-08-19T00:46:36;19.50;94.20
41926;DHT22;27615;51.826;5.692;2022-08-19T00:51:41;19.50;94.50
41926;DHT22;27615;51.826;5.692;2022-08-19T00:54:08;19.40;94.60
41926;DHT22;27615;51.826;5.692;2022-08-19T00:56:34;19.40;94.70
41926;DHT22;27615;51.826;5.692;2022-08-19T00:59:01;19.40;94.90
41926;DHT22;27615;51.826;5.692;2022-08-19T01:01:27;19.30;95.00
41926;DHT22;27615;51.826;5.692;2022-08-19T01:03:53;19.30;95.10
41926;DHT22;27615;51.826;5.692;2022-08-19T01:06:18;19.20;95.20
41926;DHT22;27615;51.826;5.692;2022-08-19T01:08:44;19.20;95.40
41926;DHT22;27615;51.826;5.692;2022-08-19T01:11:11;19.10;95.50
41926;DHT22;27615;51.826;5.692;2022-08-19T01:13:37;19.10;95.50
41926;DHT22;27615;51.826;5.692;2022-08-19T01:16:09;19.10;95.60
41926;DHT22;27615;51.826;5.692;2022-08-19T01:18:39;19.10;95.60
41926;DHT22;27615;51.826;5.692;2022-08-19T01:21:10;19.10;95.60
41926;DHT22;27615;51.826;5.692;2022-08-19T01:23:42;19.10;95.60
41926;DHT22;27615;51.826;5.692;2022-08-19T01:26:15;19.00;95.60
41926;DHT22;27615;51.826;5.692;2022-08-19T01:28:41;19.00;95.70
41926;DHT22;27615;51.826;5.692;2022-08-19T01:31:13;19.00;95.70
41926;DHT22;27615;51.826;5.692;2022-08-19T01:33:38;18.90;95.80
41926;DHT22;27615;51.826;5.692;2022-08-19T01:36:07;18.90;95.90
41926;DHT22;27615;51.826;5.692;2022-08-19T01:38:36;18.90;95.90
41926;DHT22;27615;51.826;5.692;2022-08-19T01:41:02;18.80;95.90
41926;DHT22;27615;51.826;5.692;2022-08-19T01:43:27;18.70;96.20
41926;DHT22;27615;51.826;5.692;2022-08-19T01:45:53;18.70;96.20
41926;DHT22;27615;51.826;5.692;2022-08-19T01:48:19;18.70;96.20
41926;DHT22;27615;51.826;5.692;2022-08-19T01:50:45;18.70;96.10
41926;DHT22;27615;51.826;5.692;2022-08-19T01:53:11;18.70;96.10
41926;DHT22;27615;51.826;5.692;2022-08-19T01:55:39;18.70;96.20
41926;DHT22;27615;51.826;5.692;2022-08-19T01:58:12;18.70;96.20
41926;DHT22;27615;51.826;5.692;2022-08-19T02:00:38;18.70;96.30
41926;DHT22;27615;51.826;5.692;2022-08-19T02:03:04;18.70;96.40
41926;DHT22;27615;51.826;5.692;2022-08-19T02:05:29;18.60;96.50
41926;DHT22;27615;51.826;5.692;2022-08-19T02:07:56;18.50;96.60
41926;DHT22;27615;51.826;5.692;2022-08-19T02:10:22;18.50;96.70
41926;DHT22;27615;51.826;5.692;2022-08-19T02:12:48;18.50;96.70
41926;DHT22;27615;51.826;5.692;2022-08-19T02:15:15;18.50;96.70
41926;DHT22;27615;51.826;5.692;2022-08-19T02:17:41;18.50;96.80
41926;DHT22;27615;51.826;5.692;2022-08-19T02:20:07;18.40;96.90
41926;DHT22;27615;51.826;5.692;2022-08-19T02:22:33;18.30;97.10
41926;DHT22;27615;51.826;5.692;2022-08-19T02:24:58;18.30;97.20
41926;DHT22;27615;51.826;5.692;2022-08-19T02:27:24;18.30;97.30
41926;DHT22;27615;51.826;5.692;2022-08-19T02:29:51;18.30;97.30
41926;DHT22;27615;51.826;5.692;2022-08-19T02:32:17;18.20;97.30
41926;DHT22;27615;51.826;5.692;2022-08-19T02:34:45;18.20;97.30
41926;DHT22;27615;51.826;5.692;2022-08-19T02:37:11;18.20;97.40
41926;DHT22;27615;51.826;5.692;2022-08-19T02:39:57;18.20;97.50
41926;DHT22;27615;51.826;5.692;2022-08-19T02:42:22;18.10;97.50
41926;DHT22;27615;51.826;5.692;2022-08-19T02:44:48;18.10;97.50
41926;DHT22;27615;51.826;5.692;2022-08-19T02:47:13;18.10;97.60
41926;DHT22;27615;51.826;5.692;2022-08-19T02:49:40;18.10;97.70
41926;DHT22;27615;51.826;5.692;2022-08-19T02:52:05;18.10;97.80
41926;DHT22;27615;51.826;5.692;2022-08-19T02:54:31;18.10;97.90
41926;DHT22;27615;51.826;5.692;2022-08-19T02:56:57;18.10;98.00
41926;DHT22;27615;51.826;5.692;2022-08-19T02:59:22;18.10;98.10
41926;DHT22;27615;51.826;5.692;2022-08-19T03:01:48;18.00;98.10
41926;DHT22;27615;51.826;5.692;2022-08-19T03:04:15;18.00;98.20
41926;DHT22;27615;51.826;5.692;2022-08-19T03:06:43;18.00;98.20
41926;DHT22;27615;51.826;5.692;2022-08-19T03:09:09;18.00;98.30
41926;DHT22;27615;51.826;5.692;2022-08-19T03:11:35;18.00;98.30
41926;DHT22;27615;51.826;5.692;2022-08-19T03:14:01;18.00;98.30
41926;DHT22;27615;51.826;5.692;2022-08-19T03:16:29;18.00;98.30
41926;DHT22;27615;51.826;5.692;2022-08-19T03:18:56;17.90;98.30
41926;DHT22;27615;51.826;5.692;2022-08-19T03:21:26;17.90;98.30
41926;DHT22;27615;51.826;5.692;2022-08-19T03:23:57;17.90;98.40
41926;DHT22;27615;51.826;5.692;2022-08-19T03:26:23;17.90;98.40
41926;DHT22;27615;51.826;5.692;2022-08-19T03:28:49;17.80;98.40
41926;DHT22;27615;51.826;5.692;2022-08-19T03:31:17;17.80;98.50
41926;DHT22;27615;51.826;5.692;2022-08-19T03:33:43;17.70;98.60
41926;DHT22;27615;51.826;5.692;2022-08-19T03:36:15;17.70;98.70
41926;DHT22;27615;51.826;5.692;2022-08-19T03:38:44;17.60;98.70
41926;DHT22;27615;51.826;5.692;2022-08-19T03:41:17;17.60;98.90
41926;DHT22;27615;51.826;5.692;2022-08-19T03:43:44;17.60;98.90
41926;DHT22;27615;51.826;5.692;2022-08-19T03:46:15;17.60;98.90
41926;DHT22;27615;51.826;5.692;2022-08-19T03:48:42;17.70;99.00
41926;DHT22;27615;51.826;5.692;2022-08-19T03:51:14;17.70;99.00
41926;DHT22;27615;51.826;5.692;2022-08-19T03:53:40;17.70;99.10
41926;DHT22;27615;51.826;5.692;2022-08-19T03:56:08;17.70;99.20
41926;DHT22;27615;51.826;5.692;2022-08-19T03:58:34;17.70;99.20
41926;DHT22;27615;51.826;5.692;2022-08-19T04:01:00;17.60;99.30
41926;DHT22;27615;51.826;5.692;2022-08-19T04:03:25;17.60;99.40
41926;DHT22;27615;51.826;5.692;2022-08-19T04:05:52;17.60;99.50
41926;DHT22;27615;51.826;5.692;2022-08-19T04:08:19;17.60;99.60
41926;DHT22;27615;51.826;5.692;2022-08-19T04:10:48;17.60;99.60
41926;DHT22;27615;51.826;5.692;2022-08-19T04:13:15;17.60;99.70
41926;DHT22;27615;51.826;5.692;2022-08-19T04:15:42;17.60;99.80
41926;DHT22;27615;51.826;5.692;2022-08-19T04:18:09;17.60;99.80
41926;DHT22;27615;51.826;5.692;2022-08-19T04:20:46;17.50;99.90
41926;DHT22;27615;51.826;5.692;2022-08-19T04:23:13;17.50;99.90
41926;DHT22;27615;51.826;5.692;2022-08-19T04:25:42;17.30;99.90
41926;DHT22;27615;51.826;5.692;2022-08-19T04:28:09;17.30;99.90
41926;DHT22;27615;51.826;5.692;2022-08-19T04:30:44;17.30;99.90
41926;DHT22;27615;51.826;5.692;2022-08-19T04:33:11;17.30;99.90
41926;DHT22;27615;51.826;5.692;2022-08-19T04:35:42;17.30;99.90
41926;DHT22;27615;51.826;5.692;2022-08-19T04:38:09;17.30;99.90
41926;DHT22;27615;51.826;5.692;2022-08-19T04:40:40;17.30;99.90
41926;DHT22;27615;51.826;5.692;2022-08-19T04:43:25;17.30;99.90
41926;DHT22;27615;51.826;5.692;2022-08-19T04:45:50;17.20;99.90
41926;DHT22;27615;51.826;5.692;2022-08-19T04:48:17;17.30;99.90
41926;DHT22;27615;51.826;5.692;2022-08-19T04:50:52;17.30;99.90
41926;DHT22;27615;51.826;5.692;2022-08-19T04:53:23;17.30;99.90
41926;DHT22;27615;51.826;5.692;2022-08-19T04:55:49;17.30;99.90
41926;DHT22;27615;51.826;5.692;2022-08-19T04:58:14;17.30;99.90
41926;DHT22;27615;51.826;5.692;2022-08-19T05:00:41;17.40;99.90
41926;DHT22;27615;51.826;5.692;2022-08-19T05:03:07;17.40;99.90
41926;DHT22;27615;51.826;5.692;2022-08-19T05:05:32;17.40;99.90
41926;DHT22;27615;51.826;5.692;2022-08-19T05:07:58;17.40;99.90
41926;DHT22;27615;51.826;5.692;2022-08-19T05:10:23;17.40;99.90
41926;DHT22;27615;51.826;5.692;2022-08-19T05:12:49;17.40;99.90
41926;DHT22;27615;51.826;5.692;2022-08-19T05:15:14;17.40;99.90
41926;DHT22;27615;51.826;5.692;2022-08-19T05:17:40;17.30;99.90
41926;DHT22;27615;51.826;5.692;2022-08-19T05:20:25;17.30;99.90
41926;DHT22;27615;51.826;5.692;2022-08-19T05:23:11;17.30;99.90
41926;DHT22;27615;51.826;5.692;2022-08-19T05:25:39;17.20;99.90
41926;DHT22;27615;51.826;5.692;2022-08-19T05:28:05;17.30;99.90
41926;DHT22;27615;51.826;5.692;2022-08-19T05:30:30;17.20;99.90
41926;DHT22;27615;51.826;5.692;2022-08-19T05:32:57;17.30;99.90
41926;DHT22;27615;51.826;5.692;2022-08-19T05:35:23;17.30;99.90
41926;DHT22;27615;51.826;5.692;2022-08-19T05:37:49;17.30;99.90
41926;DHT22;27615;51.826;5.692;2022-08-19T05:40:14;17.40;99.90
41926;DHT22;27615;51.826;5.692;2022-08-19T05:42:40;17.40;99.90
41926;DHT22;27615;51.826;5.692;2022-08-19T05:45:06;17.40;99.90
41926;DHT22;27615;51.826;5.692;2022-08-19T05:47:32;17.50;99.90
41926;DHT22;27615;51.826;5.692;2022-08-19T05:49:58;17.50;99.90
41926;DHT22;27615;51.826;5.692;2022-08-19T05:52:23;17.60;99.90
41926;DHT22;27615;51.826;5.692;2022-08-19T05:54:49;17.70;99.90
41926;DHT22;27615;51.826;5.692;2022-08-19T05:57:16;17.70;99.90
41926;DHT22;27615;51.826;5.692;2022-08-19T05:59:42;17.80;99.90
41926;DHT22;27615;51.826;5.692;2022-08-19T06:02:11;17.90;99.90
41926;DHT22;27615;51.826;5.692;2022-08-19T06:04:36;18.00;99.90
41926;DHT22;27615;51.826;5.692;2022-08-19T06:07:03;18.00;99.90
41926;DHT22;27615;51.826;5.692;2022-08-19T06:09:29;18.10;99.90
41926;DHT22;27615;51.826;5.692;2022-08-19T06:11:57;18.20;99.90
41926;DHT22;27615;51.826;5.692;2022-08-19T06:14:28;18.20;99.90
41926;DHT22;27615;51.826;5.692;2022-08-19T06:16:55;18.20;99.90
41926;DHT22;27615;51.826;5.692;2022-08-19T06:19:22;18.20;99.90
41926;DHT22;27615;51.826;5.692;2022-08-19T06:21:50;18.30;99.90
41926;DHT22;27615;51.826;5.692;2022-08-19T06:24:22;18.30;99.90
41926;DHT22;27615;51.826;5.692;2022-08-19T06:26:52;18.40;99.90
41926;DHT22;27615;51.826;5.692;2022-08-19T06:29:21;18.40;99.90
41926;DHT22;27615;51.826;5.692;2022-08-19T06:31:48;18.40;99.90
41926;DHT22;27615;51.826;5.692;2022-08-19T06:34:15;18.50;99.90
41926;DHT22;27615;51.826;5.692;2022-08-19T06:36:43;18.50;99.90
41926;DHT22;27615;51.826;5.692;2022-08-19T06:39:23;18.50;99.90
41926;DHT22;27615;51.826;5.692;2022-08-19T06:41:52;18.60;99.90
41926;DHT22;27615;51.826;5.692;2022-08-19T06:44:20;18.60;99.90
41926;DHT22;27615;51.826;5.692;2022-08-19T06:46:45;18.60;99.90
41926;DHT22;27615;51.826;5.692;2022-08-19T06:49:12;18.70;99.90
41926;DHT22;27615;51.826;5.692;2022-08-19T06:51:41;18.70;99.90
41926;DHT22;27615;51.826;5.692;2022-08-19T06:54:07;18.80;99.90
41926;DHT22;27615;51.826;5.692;2022-08-19T06:56:32;18.80;99.90
41926;DHT22;27615;51.826;5.692;2022-08-19T06:59:03;18.90;99.90
41926;DHT22;27615;51.826;5.692;2022-08-19T07:01:29;18.90;99.90
41926;DHT22;27615;51.826;5.692;2022-08-19T07:03:54;19.00;99.90
41926;DHT22;27615;51.826;5.692;2022-08-19T07:06:21;19.10;99.90
41926;DHT22;27615;51.826;5.692;2022-08-19T07:08:47;19.10;99.90
41926;DHT22;27615;51.826;5.692;2022-08-19T07:11:15;19.20;99.90
41926;DHT22;27615;51.826;5.692;2022-08-19T07:13:43;19.20;99.90
41926;DHT22;27615;51.826;5.692;2022-08-19T07:16:18;19.30;99.90
41926;DHT22;27615;51.826;5.692;2022-08-19T07:18:45;19.40;99.90
41926;DHT22;27615;51.826;5.692;2022-08-19T07:21:17;19.40;99.90
41926;DHT22;27615;51.826;5.692;2022-08-19T07:23:44;19.50;99.90
41926;DHT22;27615;51.826;5.692;2022-08-19T07:26:13;19.60;99.90
41926;DHT22;27615;51.826;5.692;2022-08-19T07:28:39;19.70;99.90
41926;DHT22;27615;51.826;5.692;2022-08-19T07:31:07;19.80;99.90
41926;DHT22;27615;51.826;5.692;2022-08-19T07:33:33;19.90;99.90
41926;DHT22;27615;51.826;5.692;2022-08-19T07:36:05;20.00;99.90
41926;DHT22;27615;51.826;5.692;2022-08-19T07:38:32;20.10;99.90
41926;DHT22;27615;51.826;5.692;2022-08-19T07:40:58;20.10;99.90
41926;DHT22;27615;51.826;5.692;2022-08-19T07:43:24;20.10;99.90
41926;DHT22;27615;51.826;5.692;2022-08-19T07:45:52;20.20;99.90
41926;DHT22;27615;51.826;5.692;2022-08-19T07:48:26;20.20;99.90
41926;DHT22;27615;51.826;5.692;2022-08-19T07:50:57;20.20;99.90
41926;DHT22;27615;51.826;5.692;2022-08-19T07:53:24;20.30;99.90
41926;DHT22;27615;51.826;5.692;2022-08-19T07:55:50;20.40;99.90
41926;DHT22;27615;51.826;5.692;2022-08-19T07:58:18;20.40;99.80
41926;DHT22;27615;51.826;5.692;2022-08-19T08:00:46;20.50;99.70
41926;DHT22;27615;51.826;5.692;2022-08-19T08:03:13;20.50;99.60
41926;DHT22;27615;51.826;5.692;2022-08-19T08:05:39;20.50;99.40
41926;DHT22;27615;51.826;5.692;2022-08-19T08:08:23;20.50;99.40
41926;DHT22;27615;51.826;5.692;2022-08-19T08:11:08;20.50;99.50
41926;DHT22;27615;51.826;5.692;2022-08-19T08:13:34;20.50;99.60
41926;DHT22;27615;51.826;5.692;2022-08-19T08:16:01;20.50;99.50
41926;DHT22;27615;51.826;5.692;2022-08-19T08:18:27;20.60;99.40
41926;DHT22;27615;51.826;5.692;2022-08-19T08:20:54;20.70;99.40
41926;DHT22;27615;51.826;5.692;2022-08-19T08:23:20;20.70;99.10
41926;DHT22;27615;51.826;5.692;2022-08-19T08:25:51;20.70;98.90
41926;DHT22;27615;51.826;5.692;2022-08-19T08:28:17;20.80;99.10
41926;DHT22;27615;51.826;5.692;2022-08-19T08:30:44;20.90;98.70
41926;DHT22;27615;51.826;5.692;2022-08-19T08:33:13;20.90;98.50
41926;DHT22;27615;51.826;5.692;2022-08-19T08:35:40;20.90;98.50
41926;DHT22;27615;51.826;5.692;2022-08-19T08:38:07;21.00;98.40
41926;DHT22;27615;51.826;5.692;2022-08-19T08:45:50;21.40;98.10
41926;DHT22;27615;51.826;5.692;2022-08-19T08:49:23;21.60;97.80
41926;DHT22;27615;51.826;5.692;2022-08-19T08:51:32;21.70;97.40
41926;DHT22;27615;51.826;5.692;2022-08-19T08:53:59;21.80;97.30
41926;DHT22;27615;51.826;5.692;2022-08-19T08:56:25;21.90;97.10
41926;DHT22;27615;51.826;5.692;2022-08-19T08:59:21;21.90;96.90
41926;DHT22;27615;51.826;5.692;2022-08-19T09:01:47;22.10;96.70
41926;DHT22;27615;51.826;5.692;2022-08-19T09:04:13;22.20;96.60
41926;DHT22;27615;51.826;5.692;2022-08-19T09:06:54;22.30;96.30
41926;DHT22;27615;51.826;5.692;2022-08-19T09:09:35;22.50;96.20
41926;DHT22;27615;51.826;5.692;2022-08-19T09:15:04;22.80;95.50
41926;DHT22;27615;51.826;5.692;2022-08-19T09:17:31;22.90;95.00
41926;DHT22;27615;51.826;5.692;2022-08-19T09:20:00;22.90;94.90
41926;DHT22;27615;51.826;5.692;2022-08-19T09:22:32;22.90;94.60
41926;DHT22;27615;51.826;5.692;2022-08-19T09:24:57;22.90;94.50
41926;DHT22;27615;51.826;5.692;2022-08-19T09:27:24;22.90;94.10
41926;DHT22;27615;51.826;5.692;2022-08-19T09:29:51;22.80;94.10
41926;DHT22;27615;51.826;5.692;2022-08-19T09:32:17;22.80;94.00
41926;DHT22;27615;51.826;5.692;2022-08-19T09:34:43;22.70;93.80
41926;DHT22;27615;51.826;5.692;2022-08-19T09:37:09;22.60;94.00
41926;DHT22;27615;51.826;5.692;2022-08-19T09:39:35;22.60;93.90
41926;DHT22;27615;51.826;5.692;2022-08-19T09:42:00;22.50;93.80
41926;DHT22;27615;51.826;5.692;2022-08-19T09:44:26;22.60;93.70
41926;DHT22;27615;51.826;5.692;2022-08-19T09:46:51;22.60;93.50
41926;DHT22;27615;51.826;5.692;2022-08-19T09:49:19;22.60;93.40
41926;DHT22;27615;51.826;5.692;2022-08-19T09:51:50;22.60;93.40
41926;DHT22;27615;51.826;5.692;2022-08-19T09:54:16;22.60;93.30
41926;DHT22;27615;51.826;5.692;2022-08-19T09:56:41;22.60;93.30
41926;DHT22;27615;51.826;5.692;2022-08-19T09:59:07;22.70;93.20
41926;DHT22;27615;51.826;5.692;2022-08-19T10:01:33;22.90;93.00
41926;DHT22;27615;51.826;5.692;2022-08-19T10:04:00;23.00;92.40
41926;DHT22;27615;51.826;5.692;2022-08-19T10:06:29;23.10;91.90
41926;DHT22;27615;51.826;5.692;2022-08-19T10:08:59;23.00;92.00
41926;DHT22;27615;51.826;5.692;2022-08-19T10:11:25;23.00;92.00
41926;DHT22;27615;51.826;5.692;2022-08-19T10:13:52;23.10;91.60
41926;DHT22;27615;51.826;5.692;2022-08-19T10:16:20;23.20;91.40
41926;DHT22;27615;51.826;5.692;2022-08-19T10:18:48;23.40;91.20
41926;DHT22;27615;51.826;5.692;2022-08-19T10:21:26;23.40;90.80
41926;DHT22;27615;51.826;5.692;2022-08-19T10:23:54;23.60;90.70
41926;DHT22;27615;51.826;5.692;2022-08-19T10:26:23;23.80;90.30
41926;DHT22;27615;51.826;5.692;2022-08-19T10:28:49;23.80;90.30
41926;DHT22;27615;51.826;5.692;2022-08-19T10:31:29;24.00;90.20
41926;DHT22;27615;51.826;5.692;2022-08-19T10:33:56;24.20;89.10
41926;DHT22;27615;51.826;5.692;2022-08-19T10:36:27;24.30;88.60
41926;DHT22;27615;51.826;5.692;2022-08-19T10:38:55;24.30;87.90
41926;DHT22;27615;51.826;5.692;2022-08-19T10:41:26;24.30;88.00
41926;DHT22;27615;51.826;5.692;2022-08-19T10:43:53;24.40;88.10
41926;DHT22;27615;51.826;5.692;2022-08-19T10:46:20;24.50;87.70
41926;DHT22;27615;51.826;5.692;2022-08-19T10:48:46;24.60;87.10
41926;DHT22;27615;51.826;5.692;2022-08-19T10:51:12;24.70;86.30
41926;DHT22;27615;51.826;5.692;2022-08-19T10:53:56;24.90;86.00
41926;DHT22;27615;51.826;5.692;2022-08-19T10:56:22;24.90;85.00
41926;DHT22;27615;51.826;5.692;2022-08-19T10:59:07;24.90;85.30
41926;DHT22;27615;51.826;5.692;2022-08-19T11:01:34;25.10;85.30
41926;DHT22;27615;51.826;5.692;2022-08-19T11:04:01;25.00;83.50
41926;DHT22;27615;51.826;5.692;2022-08-19T11:06:27;24.90;84.30
41926;DHT22;27615;51.826;5.692;2022-08-19T11:08:54;24.90;84.40
41926;DHT22;27615;51.826;5.692;2022-08-19T11:11:20;24.90;84.70
41926;DHT22;27615;51.826;5.692;2022-08-19T11:13:48;24.90;84.80
41926;DHT22;27615;51.826;5.692;2022-08-19T11:16:20;24.90;85.00
41926;DHT22;27615;51.826;5.692;2022-08-19T11:18:49;24.90;84.80
41926;DHT22;27615;51.826;5.692;2022-08-19T11:21:22;25.00;85.00
41926;DHT22;27615;51.826;5.692;2022-08-19T11:23:49;25.20;84.40
41926;DHT22;27615;51.826;5.692;2022-08-19T11:26:16;25.40;84.10
41926;DHT22;27615;51.826;5.692;2022-08-19T11:28:42;25.50;83.60
41926;DHT22;27615;51.826;5.692;2022-08-19T11:31:13;25.60;83.40
41926;DHT22;27615;51.826;5.692;2022-08-19T11:33:39;25.80;83.10
41926;DHT22;27615;51.826;5.692;2022-08-19T11:36:05;26.00;83.40
41926;DHT22;27615;51.826;5.692;2022-08-19T11:38:31;26.00;81.70
41926;DHT22;27615;51.826;5.692;2022-08-19T11:40:58;25.80;81.30
41926;DHT22;27615;51.826;5.692;2022-08-19T11:43:24;25.70;81.80
41926;DHT22;27615;51.826;5.692;2022-08-19T11:45:52;25.70;82.30
41926;DHT22;27615;51.826;5.692;2022-08-19T11:48:18;25.90;82.40
41926;DHT22;27615;51.826;5.692;2022-08-19T11:50:51;26.30;82.10
41926;DHT22;27615;51.826;5.692;2022-08-19T11:53:18;26.60;81.10
41926;DHT22;27615;51.826;5.692;2022-08-19T11:55:45;26.70;80.70
41926;DHT22;27615;51.826;5.692;2022-08-19T11:58:12;26.90;79.60
41926;DHT22;27615;51.826;5.692;2022-08-19T12:00:39;26.90;78.50
41926;DHT22;27615;51.826;5.692;2022-08-19T12:03:05;27.20;78.50
41926;DHT22;27615;51.826;5.692;2022-08-19T12:05:31;27.40;77.40
41926;DHT22;27615;51.826;5.692;2022-08-19T12:07:57;27.60;76.40
41926;DHT22;27615;51.826;5.692;2022-08-19T12:10:23;27.90;76.00
41926;DHT22;27615;51.826;5.692;2022-08-19T12:12:49;28.40;75.20
41926;DHT22;27615;51.826;5.692;2022-08-19T12:15:14;28.40;72.90
41926;DHT22;27615;51.826;5.692;2022-08-19T12:17:41;28.50;72.10
41926;DHT22;27615;51.826;5.692;2022-08-19T12:20:09;28.50;71.60
41926;DHT22;27615;51.826;5.692;2022-08-19T12:22:36;28.80;72.40
41926;DHT22;27615;51.826;5.692;2022-08-19T12:25:04;28.90;71.00
41926;DHT22;27615;51.826;5.692;2022-08-19T12:27:30;29.00;70.30
41926;DHT22;27615;51.826;5.692;2022-08-19T12:29:56;29.20;70.60
41926;DHT22;27615;51.826;5.692;2022-08-19T12:32:22;29.60;70.00
41926;DHT22;27615;51.826;5.692;2022-08-19T12:34:50;29.70;67.70
41926;DHT22;27615;51.826;5.692;2022-08-19T12:37:15;29.90;67.50
41926;DHT22;27615;51.826;5.692;2022-08-19T12:39:42;30.30;67.20
41926;DHT22;27615;51.826;5.692;2022-08-19T12:42:10;30.20;65.30
41926;DHT22;27615;51.826;5.692;2022-08-19T12:44:37;30.10;66.30
41926;DHT22;27615;51.826;5.692;2022-08-19T12:47:03;30.30;66.00
41926;DHT22;27615;51.826;5.692;2022-08-19T12:49:30;30.60;65.60
41926;DHT22;27615;51.826;5.692;2022-08-19T12:51:57;30.90;64.20
41926;DHT22;27615;51.826;5.692;2022-08-19T12:54:23;30.70;63.90
41926;DHT22;27615;51.826;5.692;2022-08-19T12:56:49;30.80;64.10
41926;DHT22;27615;51.826;5.692;2022-08-19T12:59:14;31.10;63.60
41926;DHT22;27615;51.826;5.692;2022-08-19T13:01:43;31.30;62.70
41926;DHT22;27615;51.826;5.692;2022-08-19T13:04:09;31.60;61.90
41926;DHT22;27615;51.826;5.692;2022-08-19T13:06:35;32.00;61.50
41926;DHT22;27615;51.826;5.692;2022-08-19T13:09:05;32.30;61.00
41926;DHT22;27615;51.826;5.692;2022-08-19T13:11:31;32.30;58.90
41926;DHT22;27615;51.826;5.692;2022-08-19T13:13:59;32.20;59.20
41926;DHT22;27615;51.826;5.692;2022-08-19T13:16:25;32.10;59.30
41926;DHT22;27615;51.826;5.692;2022-08-19T13:18:53;31.90;59.20
41926;DHT22;27615;51.826;5.692;2022-08-19T13:21:21;31.60;59.60
41926;DHT22;27615;51.826;5.692;2022-08-19T13:23:48;31.90;60.00
41926;DHT22;27615;51.826;5.692;2022-08-19T13:26:15;32.00;59.50
41926;DHT22;27615;51.826;5.692;2022-08-19T13:28:42;31.90;59.30
41926;DHT22;27615;51.826;5.692;2022-08-19T13:31:28;31.80;59.70
41926;DHT22;27615;51.826;5.692;2022-08-19T13:34:14;31.60;59.50
41926;DHT22;27615;51.826;5.692;2022-08-19T13:36:40;31.30;59.90
41926;DHT22;27615;51.826;5.692;2022-08-19T13:39:07;31.30;60.20
41926;DHT22;27615;51.826;5.692;2022-08-19T13:41:34;31.50;60.10
41926;DHT22;27615;51.826;5.692;2022-08-19T13:44:00;31.30;60.10
41926;DHT22;27615;51.826;5.692;2022-08-19T13:46:27;31.20;60.40
41926;DHT22;27615;51.826;5.692;2022-08-19T13:48:54;31.10;60.60
41926;DHT22;27615;51.826;5.692;2022-08-19T13:51:20;30.90;60.70
41926;DHT22;27615;51.826;5.692;2022-08-19T13:53:45;30.60;60.90
41926;DHT22;27615;51.826;5.692;2022-08-19T13:56:17;30.40;61.50
41926;DHT22;27615;51.826;5.692;2022-08-19T13:58:43;30.10;62.10
41926;DHT22;27615;51.826;5.692;2022-08-19T14:01:10;29.80;63.00
41926;DHT22;27615;51.826;5.692;2022-08-19T14:03:36;29.60;63.30
41926;DHT22;27615;51.826;5.692;2022-08-19T14:06:02;29.40;63.60
41926;DHT22;27615;51.826;5.692;2022-08-19T14:08:28;29.20;64.20
41926;DHT22;27615;51.826;5.692;2022-08-19T14:10:55;29.00;64.60
41926;DHT22;27615;51.826;5.692;2022-08-19T14:13:22;28.80;65.20
41926;DHT22;27615;51.826;5.692;2022-08-19T14:15:49;28.60;65.70
41926;DHT22;27615;51.826;5.692;2022-08-19T14:18:16;28.60;66.00
41926;DHT22;27615;51.826;5.692;2022-08-19T14:20:42;28.40;66.30
41926;DHT22;27615;51.826;5.692;2022-08-19T14:23:08;28.40;67.00
41926;DHT22;27615;51.826;5.692;2022-08-19T14:25:33;28.40;67.00
41926;DHT22;27615;51.826;5.692;2022-08-19T14:28:00;28.50;67.00
41926;DHT22;27615;51.826;5.692;2022-08-19T14:30:29;28.70;66.80
41926;DHT22;27615;51.826;5.692;2022-08-19T14:32:56;28.70;67.40
41926;DHT22;27615;51.826;5.692;2022-08-19T14:35:23;28.50;67.20
41926;DHT22;27615;51.826;5.692;2022-08-19T14:37:50;28.30;67.70
41926;DHT22;27615;51.826;5.692;2022-08-19T14:40:18;28.20;68.20
41926;DHT22;27615;51.826;5.692;2022-08-19T14:42:47;28.10;68.60
41926;DHT22;27615;51.826;5.692;2022-08-19T14:45:14;28.00;69.00
41926;DHT22;27615;51.826;5.692;2022-08-19T14:47:39;27.90;69.90
41926;DHT22;27615;51.826;5.692;2022-08-19T14:50:10;27.80;69.50
41926;DHT22;27615;51.826;5.692;2022-08-19T14:52:36;27.80;69.60
41926;DHT22;27615;51.826;5.692;2022-08-19T14:55:03;27.70;69.50
41926;DHT22;27615;51.826;5.692;2022-08-19T14:57:28;27.60;69.70
41926;DHT22;27615;51.826;5.692;2022-08-19T14:59:54;27.50;70.00
41926;DHT22;27615;51.826;5.692;2022-08-19T15:02:19;27.50;70.30
41926;DHT22;27615;51.826;5.692;2022-08-19T15:04:45;27.50;70.70
41926;DHT22;27615;51.826;5.692;2022-08-19T15:07:11;27.50;70.80
41926;DHT22;27615;51.826;5.692;2022-08-19T15:09:37;27.60;70.70
41926;DHT22;27615;51.826;5.692;2022-08-19T15:12:03;27.70;70.70
41926;DHT22;27615;51.826;5.692;2022-08-19T15:14:29;27.80;70.70
41926;DHT22;27615;51.826;5.692;2022-08-19T15:17:01;28.00;70.70
41926;DHT22;27615;51.826;5.692;2022-08-19T15:19:26;28.00;70.40
41926;DHT22;27615;51.826;5.692;2022-08-19T15:21:53;28.10;70.70
41926;DHT22;27615;51.826;5.692;2022-08-19T15:24:20;28.10;70.70
41926;DHT22;27615;51.826;5.692;2022-08-19T15:26:45;28.00;70.90
41926;DHT22;27615;51.826;5.692;2022-08-19T15:29:11;27.80;71.00
41926;DHT22;27615;51.826;5.692;2022-08-19T15:31:42;27.70;71.30
41926;DHT22;27615;51.826;5.692;2022-08-19T15:34:08;27.60;71.60
41926;DHT22;27615;51.826;5.692;2022-08-19T15:36:34;27.50;71.60
41926;DHT22;27615;51.826;5.692;2022-08-19T15:39:00;27.50;71.70
41926;DHT22;27615;51.826;5.692;2022-08-19T15:41:29;27.40;71.60
41926;DHT22;27615;51.826;5.692;2022-08-19T15:44:10;27.40;71.50
41926;DHT22;27615;51.826;5.692;2022-08-19T15:46:38;27.40;71.40
41926;DHT22;27615;51.826;5.692;2022-08-19T15:49:04;27.30;71.70